sensor_id;sensor_type;location;lat;lon;timestamp;temperature;humidity
19920;DHT22;10122;50.074;19.920;2022-10-18T00:02:07;14.60;99.90
19920;DHT22;10122;50.074;19.920;2022-10-18T00:04:33;14.60;99.90
19920;DHT22;10122;50.074;19.920;2022-10-18T00:06:59;14.60;99.90
19920;DHT22;10122;50.074;19.920;2022-10-18T00:09:24;14.50;99.90
19920;DHT22;10122;50.074;19.920;2022-10-18T00:11:52;14.40;99.90
19920;DHT22;10122;50.074;19.920;2022-10-18T00:14:18;14.40;99.90
19920;DHT22;10122;50.074;19.920;2022-10-18T00:16:44;14.40;99.90
19920;DHT22;10122;50.074;19.920;2022-10-18T00:19:10;14.30;99.90
19920;DHT22;10122;50.074;19.920;2022-10-18T00:21:35;14.30;99.90
19920;DHT22;10122;50.074;19.920;2022-10-18T00:24:01;14.20;99.90
19920;DHT22;10122;50.074;19.920;2022-10-18T00:26:28;14.20;99.90
19920;DHT22;10122;50.074;19.920;2022-10-18T00:28:57;14.20;99.90
19920;DHT22;10122;50.074;19.920;2022-10-18T00:31:28;14.30;99.90
19920;DHT22;10122;50.074;19.920;2022-10-18T00:33:56;14.20;99.90
19920;DHT22;10122;50.074;19.920;2022-10-18T00:36:24;14.20;99.90
19920;DHT22;10122;50.074;19.920;2022-10-18T00:38:50;14.10;99.90
19920;DHT22;10122;50.074;19.920;2022-10-18T00:41:19;14.00;99.90
19920;DHT22;10122;50.074;19.920;2022-10-18T00:44:05;14.00;99.90
19920;DHT22;10122;50.074;19.920;2022-10-18T00:46:33;13.90;99.90
19920;DHT22;10122;50.074;19.920;2022-10-18T00:49:05;13.90;99.90
19920;DHT22;10122;50.074;19.920;2022-10-18T00:51:41;13.80;99.90
19920;DHT22;10122;50.074;19.920;2022-10-18T00:54:09;13.80;99.90
19920;DHT22;10122;50.074;19.920;2022-10-18T00:56:35;13.70;99.90
19920;DHT22;10122;50.074;19.920;2022-10-18T00:59:01;13.70;99.90
19920;DHT22;10122;50.074;19.920;2022-10-18T01:01:27;13.60;99.90
19920;DHT22;10122;50.074;19.920;2022-10-18T01:03:53;13.60;99.90
19920;DHT22;10122;50.074;19.920;2022-10-18T01:06:19;13.60;99.90
19920;DHT22;10122;50.074;19.920;2022-10-18T01:09:04;13.60;99.90
19920;DHT22;10122;50.074;19.920;2022-10-18T01:16:58;13.50;99.90
19920;DHT22;10122;50.074;19.920;2022-10-18T01:22:22;13.60;99.90
19920;DHT22;10122;50.074;19.920;2022-10-18T01:32:57;13.50;99.90
19920;DHT22;10122;50.074;19.920;2022-10-18T01:35:35;13.40;99.90
19920;DHT22;10122;50.074;19.920;2022-10-18T01:38:04;13.40;99.90
19920;DHT22;10122;50.074;19.920;2022-10-18T01:40:32;13.50;99.90
19920;DHT22;10122;50.074;19.920;2022-10-18T01:42:59;13.60;99.90
19920;DHT22;10122;50.074;19.920;2022-10-18T01:45:26;13.50;99.90
19920;DHT22;10122;50.074;19.920;2022-10-18T01:47:53;13.40;99.90
19920;DHT22;10122;50.074;19.920;2022-10-18T01:50:30;13.40;99.90
19920;DHT22;10122;50.074;19.920;2022-10-18T01:52:57;13.30;99.90
19920;DHT22;10122;50.074;19.920;2022-10-18T01:55:45;13.20;99.90
19920;DHT22;10122;50.074;19.920;2022-10-18T01:58:54;13.10;99.90
19920;DHT22;10122;50.074;19.920;2022-10-18T02:07:40;13.10;99.90
19920;DHT22;10122;50.074;19.920;2022-10-18T02:10:08;13.10;99.90
19920;DHT22;10122;50.074;19.920;2022-10-18T02:12:36;13.00;99.90
19920;DHT22;10122;50.074;19.920;2022-10-18T02:15:06;13.00;99.90
19920;DHT22;10122;50.074;19.920;2022-10-18T02:17:34;13.00;99.90
19920;DHT22;10122;50.074;19.920;2022-10-18T02:20:03;13.00;99.90
19920;DHT22;10122;50.074;19.920;2022-10-18T02:22:31;13.00;99.90
19920;DHT22;10122;50.074;19.920;2022-10-18T02:25:00;12.90;99.90
19920;DHT22;10122;50.074;19.920;2022-10-18T02:27:27;12.80;99.90
19920;DHT22;10122;50.074;19.920;2022-10-18T02:29:53;12.70;99.90
19920;DHT22;10122;50.074;19.920;2022-10-18T02:32:33;12.70;99.90
19920;DHT22;10122;50.074;19.920;2022-10-18T02:35:29;12.60;99.90
19920;DHT22;10122;50.074;19.920;2022-10-18T02:37:56;12.60;99.90
19920;DHT22;10122;50.074;19.920;2022-10-18T02:40:24;12.70;99.90
19920;DHT22;10122;50.074;19.920;2022-10-18T02:42:54;12.70;99.90
19920;DHT22;10122;50.074;19.920;2022-10-18T02:45:20;12.60;99.90
19920;DHT22;10122;50.074;19.920;2022-10-18T02:47:46;12.60;99.90
19920;DHT22;10122;50.074;19.920;2022-10-18T02:50:12;12.60;99.90
19920;DHT22;10122;50.074;19.920;2022-10-18T02:52:38;12.60;99.90
19920;DHT22;10122;50.074;19.920;2022-10-18T02:55:04;12.60;99.90
19920;DHT22;10122;50.074;19.920;2022-10-18T02:57:30;12.70;99.90
19920;DHT22;10122;50.074;19.920;2022-10-18T02:59:56;12.70;99.90
19920;DHT22;10122;50.074;19.920;2022-10-18T03:02:22;12.70;99.90
19920;DHT22;10122;50.074;19.920;2022-10-18T03:04:48;12.70;99.90
19920;DHT22;10122;50.074;19.920;2022-10-18T03:07:13;12.70;99.90
19920;DHT22;10122;50.074;19.920;2022-10-18T03:09:39;12.50;99.90
19920;DHT22;10122;50.074;19.920;2022-10-18T03:12:05;12.50;99.90
19920;DHT22;10122;50.074;19.920;2022-10-18T03:14:31;12.60;99.90
19920;DHT22;10122;50.074;19.920;2022-10-18T03:16:56;12.60;99.90
19920;DHT22;10122;50.074;19.920;2022-10-18T03:19:22;12.60;99.90
19920;DHT22;10122;50.074;19.920;2022-10-18T03:21:48;12.60;99.90
19920;DHT22;10122;50.074;19.920;2022-10-18T03:24:13;12.60;99.90
19920;DHT22;10122;50.074;19.920;2022-10-18T03:26:39;12.50;99.90
19920;DHT22;10122;50.074;19.920;2022-10-18T03:29:05;12.40;99.90
19920;DHT22;10122;50.074;19.920;2022-10-18T03:31:31;12.40;99.90
19920;DHT22;10122;50.074;19.920;2022-10-18T03:33:56;12.50;99.90
19920;DHT22;10122;50.074;19.920;2022-10-18T03:36:22;12.40;99.90
19920;DHT22;10122;50.074;19.920;2022-10-18T03:38:48;12.30;99.90
19920;DHT22;10122;50.074;19.920;2022-10-18T03:41:13;12.20;99.90
19920;DHT22;10122;50.074;19.920;2022-10-18T03:43:39;12.30;99.90
19920;DHT22;10122;50.074;19.920;2022-10-18T03:46:05;12.20;99.90
19920;DHT22;10122;50.074;19.920;2022-10-18T03:48:31;12.20;99.90
19920;DHT22;10122;50.074;19.920;2022-10-18T03:50:56;12.10;99.90
19920;DHT22;10122;50.074;19.920;2022-10-18T03:53:22;12.00;99.90
19920;DHT22;10122;50.074;19.920;2022-10-18T03:55:52;11.90;99.90
19920;DHT22;10122;50.074;19.920;2022-10-18T03:58:18;11.80;99.90
19920;DHT22;10122;50.074;19.920;2022-10-18T04:00:43;11.80;99.90
19920;DHT22;10122;50.074;19.920;2022-10-18T04:03:09;11.80;99.90
19920;DHT22;10122;50.074;19.920;2022-10-18T04:05:35;11.80;99.90
19920;DHT22;10122;50.074;19.920;2022-10-18T04:08:01;11.70;99.90
19920;DHT22;10122;50.074;19.920;2022-10-18T04:10:27;11.70;99.90
19920;DHT22;10122;50.074;19.920;2022-10-18T04:12:53;11.70;99.90
19920;DHT22;10122;50.074;19.920;2022-10-18T04:15:19;11.70;99.90
19920;DHT22;10122;50.074;19.920;2022-10-18T04:17:45;11.70;99.90
19920;DHT22;10122;50.074;19.920;2022-10-18T04:20:11;11.60;99.90
19920;DHT22;10122;50.074;19.920;2022-10-18T04:22:37;11.60;99.90
19920;DHT22;10122;50.074;19.920;2022-10-18T04:25:03;11.50;99.90
19920;DHT22;10122;50.074;19.920;2022-10-18T04:27:29;11.50;99.90
19920;DHT22;10122;50.074;19.920;2022-10-18T04:29:55;11.60;99.90
19920;DHT22;10122;50.074;19.920;2022-10-18T04:32:20;11.60;99.90
19920;DHT22;10122;50.074;19.920;2022-10-18T04:34:46;11.60;99.90
19920;DHT22;10122;50.074;19.920;2022-10-18T04:37:12;11.60;99.90
19920;DHT22;10122;50.074;19.920;2022-10-18T04:39:37;11.50;99.90
19920;DHT22;10122;50.074;19.920;2022-10-18T04:42:03;11.60;99.90
19920;DHT22;10122;50.074;19.920;2022-10-18T04:44:29;11.50;99.90
19920;DHT22;10122;50.074;19.920;2022-10-18T04:46:54;11.60;99.90
19920;DHT22;10122;50.074;19.920;2022-10-18T04:49:20;11.50;99.90
19920;DHT22;10122;50.074;19.920;2022-10-18T04:51:46;11.50;99.90
19920;DHT22;10122;50.074;19.920;2022-10-18T04:54:11;11.40;99.90
19920;DHT22;10122;50.074;19.920;2022-10-18T04:56:37;11.40;99.90
19920;DHT22;10122;50.074;19.920;2022-10-18T04:59:03;11.30;99.90
19920;DHT22;10122;50.074;19.920;2022-10-18T05:01:28;11.30;99.90
19920;DHT22;10122;50.074;19.920;2022-10-18T05:03:54;11.20;99.90
19920;DHT22;10122;50.074;19.920;2022-10-18T05:06:21;11.20;99.90
19920;DHT22;10122;50.074;19.920;2022-10-18T05:08:47;11.10;99.90
19920;DHT22;10122;50.074;19.920;2022-10-18T05:11:13;11.10;99.90
19920;DHT22;10122;50.074;19.920;2022-10-18T05:13:38;11.10;99.90
19920;DHT22;10122;50.074;19.920;2022-10-18T05:16:05;11.10;99.90
19920;DHT22;10122;50.074;19.920;2022-10-18T05:18:30;11.10;99.90
19920;DHT22;10122;50.074;19.920;2022-10-18T05:20:56;11.30;99.90
19920;DHT22;10122;50.074;19.920;2022-10-18T05:23:23;11.40;99.90
19920;DHT22;10122;50.074;19.920;2022-10-18T05:25:48;11.60;99.90
19920;DHT22;10122;50.074;19.920;2022-10-18T05:28:14;11.70;99.90
19920;DHT22;10122;50.074;19.920;2022-10-18T05:30:40;11.90;99.90
19920;DHT22;10122;50.074;19.920;2022-10-18T05:33:07;11.90;99.90
19920;DHT22;10122;50.074;19.920;2022-10-18T05:35:33;12.10;99.90
19920;DHT22;10122;50.074;19.920;2022-10-18T05:38:05;12.20;99.90
19920;DHT22;10122;50.074;19.920;2022-10-18T05:40:37;12.30;99.90
19920;DHT22;10122;50.074;19.920;2022-10-18T05:43:03;12.40;99.90
19920;DHT22;10122;50.074;19.920;2022-10-18T05:45:29;12.60;99.90
19920;DHT22;10122;50.074;19.920;2022-10-18T05:47:55;12.90;99.90
19920;DHT22;10122;50.074;19.920;2022-10-18T05:50:20;13.10;99.90
19920;DHT22;10122;50.074;19.920;2022-10-18T05:52:46;13.20;99.90
19920;DHT22;10122;50.074;19.920;2022-10-18T05:55:12;13.30;99.90
19920;DHT22;10122;50.074;19.920;2022-10-18T05:57:37;13.40;99.90
19920;DHT22;10122;50.074;19.920;2022-10-18T06:00:03;13.60;99.90
19920;DHT22;10122;50.074;19.920;2022-10-18T06:02:29;13.60;99.90
19920;DHT22;10122;50.074;19.920;2022-10-18T06:04:55;13.80;99.90
19920;DHT22;10122;50.074;19.920;2022-10-18T06:07:20;14.00;99.90
19920;DHT22;10122;50.074;19.920;2022-10-18T06:09:46;14.10;99.90
19920;DHT22;10122;50.074;19.920;2022-10-18T06:12:22;14.20;99.90
19920;DHT22;10122;50.074;19.920;2022-10-18T06:14:47;14.20;99.90
19920;DHT22;10122;50.074;19.920;2022-10-18T06:17:13;14.10;99.90
19920;DHT22;10122;50.074;19.920;2022-10-18T06:19:39;13.90;99.90
19920;DHT22;10122;50.074;19.920;2022-10-18T06:22:05;13.70;99.90
19920;DHT22;10122;50.074;19.920;2022-10-18T06:24:30;13.70;99.90
19920;DHT22;10122;50.074;19.920;2022-10-18T06:26:56;13.80;99.90
19920;DHT22;10122;50.074;19.920;2022-10-18T06:29:22;13.80;99.90
19920;DHT22;10122;50.074;19.920;2022-10-18T06:31:47;13.90;99.90
19920;DHT22;10122;50.074;19.920;2022-10-18T06:34:13;13.80;99.90
19920;DHT22;10122;50.074;19.920;2022-10-18T06:36:39;13.60;99.90
19920;DHT22;10122;50.074;19.920;2022-10-18T06:39:05;13.50;99.90
19920;DHT22;10122;50.074;19.920;2022-10-18T06:41:30;13.50;99.90
19920;DHT22;10122;50.074;19.920;2022-10-18T06:43:56;13.60;99.90
19920;DHT22;10122;50.074;19.920;2022-10-18T06:46:23;13.60;99.90
19920;DHT22;10122;50.074;19.920;2022-10-18T06:48:49;13.60;99.90
19920;DHT22;10122;50.074;19.920;2022-10-18T06:51:14;13.60;99.90
19920;DHT22;10122;50.074;19.920;2022-10-18T06:53:41;13.60;99.90
19920;DHT22;10122;50.074;19.920;2022-10-18T06:56:11;13.70;99.90
19920;DHT22;10122;50.074;19.920;2022-10-18T06:58:37;13.80;99.90
19920;DHT22;10122;50.074;19.920;2022-10-18T07:01:13;14.00;99.90
19920;DHT22;10122;50.074;19.920;2022-10-18T07:03:40;14.20;99.90
19920;DHT22;10122;50.074;19.920;2022-10-18T07:06:08;14.50;99.90
19920;DHT22;10122;50.074;19.920;2022-10-18T07:08:34;14.80;99.90
19920;DHT22;10122;50.074;19.920;2022-10-18T07:11:00;15.20;99.90
19920;DHT22;10122;50.074;19.920;2022-10-18T07:13:29;15.60;99.90
19920;DHT22;10122;50.074;19.920;2022-10-18T07:16:08;16.00;99.90
19920;DHT22;10122;50.074;19.920;2022-10-18T07:18:35;16.30;99.90
19920;DHT22;10122;50.074;19.920;2022-10-18T07:21:03;16.60;99.90
19920;DHT22;10122;50.074;19.920;2022-10-18T07:23:32;17.00;99.90
19920;DHT22;10122;50.074;19.920;2022-10-18T07:25:58;17.30;99.90
19920;DHT22;10122;50.074;19.920;2022-10-18T07:28:24;17.70;99.90
19920;DHT22;10122;50.074;19.920;2022-10-18T07:30:49;18.00;99.90
19920;DHT22;10122;50.074;19.920;2022-10-18T07:33:15;18.30;99.90
19920;DHT22;10122;50.074;19.920;2022-10-18T07:35:41;18.60;99.90
19920;DHT22;10122;50.074;19.920;2022-10-18T07:38:06;18.90;99.90
19920;DHT22;10122;50.074;19.920;2022-10-18T07:40:32;19.10;99.90
19920;DHT22;10122;50.074;19.920;2022-10-18T07:42:58;19.30;99.90
19920;DHT22;10122;50.074;19.920;2022-10-18T07:45:23;19.60;99.90
19920;DHT22;10122;50.074;19.920;2022-10-18T07:47:56;19.80;99.90
19920;DHT22;10122;50.074;19.920;2022-10-18T07:50:22;20.00;99.90
19920;DHT22;10122;50.074;19.920;2022-10-18T07:52:48;20.20;99.90
19920;DHT22;10122;50.074;19.920;2022-10-18T07:55:14;20.40;99.90
19920;DHT22;10122;50.074;19.920;2022-10-18T07:57:39;20.60;99.90
19920;DHT22;10122;50.074;19.920;2022-10-18T08:00:06;20.80;98.90
19920;DHT22;10122;50.074;19.920;2022-10-18T08:02:33;21.00;98.00
19920;DHT22;10122;50.074;19.920;2022-10-18T08:04:59;21.20;96.60
19920;DHT22;10122;50.074;19.920;2022-10-18T08:07:25;21.40;95.90
19920;DHT22;10122;50.074;19.920;2022-10-18T08:09:50;21.50;95.30
19920;DHT22;10122;50.074;19.920;2022-10-18T08:12:16;21.70;94.80
19920;DHT22;10122;50.074;19.920;2022-10-18T08:14:42;21.80;93.80
19920;DHT22;10122;50.074;19.920;2022-10-18T08:17:07;21.90;92.80
19920;DHT22;10122;50.074;19.920;2022-10-18T08:19:33;22.00;91.90
19920;DHT22;10122;50.074;19.920;2022-10-18T08:21:59;22.10;91.30
19920;DHT22;10122;50.074;19.920;2022-10-18T08:24:24;22.30;90.70
19920;DHT22;10122;50.074;19.920;2022-10-18T08:26:50;22.50;90.20
19920;DHT22;10122;50.074;19.920;2022-10-18T08:29:16;22.70;89.20
19920;DHT22;10122;50.074;19.920;2022-10-18T08:31:41;22.80;87.00
19920;DHT22;10122;50.074;19.920;2022-10-18T08:34:07;22.90;84.80
19920;DHT22;10122;50.074;19.920;2022-10-18T08:36:33;23.00;82.40
19920;DHT22;10122;50.074;19.920;2022-10-18T08:38:58;23.00;82.40
19920;DHT22;10122;50.074;19.920;2022-10-18T08:44:23;23.20;80.40
19920;DHT22;10122;50.074;19.920;2022-10-18T08:46:52;23.20;79.30
19920;DHT22;10122;50.074;19.920;2022-10-18T08:49:48;23.40;78.30
19920;DHT22;10122;50.074;19.920;2022-10-18T08:57:34;23.70;75.80
19920;DHT22;10122;50.074;19.920;2022-10-18T09:00:21;23.80;76.60
19920;DHT22;10122;50.074;19.920;2022-10-18T09:11:40;24.30;72.30
19920;DHT22;10122;50.074;19.920;2022-10-18T09:17:02;24.50;71.30
19920;DHT22;10122;50.074;19.920;2022-10-18T09:19:49;24.60;70.50
19920;DHT22;10122;50.074;19.920;2022-10-18T09:22:29;24.70;70.60
19920;DHT22;10122;50.074;19.920;2022-10-18T09:28:20;24.60;70.10
19920;DHT22;10122;50.074;19.920;2022-10-18T09:30:51;24.60;70.20
19920;DHT22;10122;50.074;19.920;2022-10-18T09:35:56;24.60;70.40
19920;DHT22;10122;50.074;19.920;2022-10-18T09:38:27;24.60;70.40
19920;DHT22;10122;50.074;19.920;2022-10-18T09:41:07;24.70;70.70
19920;DHT22;10122;50.074;19.920;2022-10-18T09:46:06;24.70;70.60
19920;DHT22;10122;50.074;19.920;2022-10-18T09:49:01;24.70;70.60
19920;DHT22;10122;50.074;19.920;2022-10-18T09:51:34;24.70;70.80
19920;DHT22;10122;50.074;19.920;2022-10-18T09:56:47;24.90;70.90
19920;DHT22;10122;50.074;19.920;2022-10-18T10:02:05;25.00;68.90
19920;DHT22;10122;50.074;19.920;2022-10-18T10:04:31;25.00;68.70
19920;DHT22;10122;50.074;19.920;2022-10-18T10:06:59;25.00;68.20
19920;DHT22;10122;50.074;19.920;2022-10-18T10:09:30;25.10;67.40
19920;DHT22;10122;50.074;19.920;2022-10-18T10:12:00;25.10;67.40
19920;DHT22;10122;50.074;19.920;2022-10-18T10:14:28;25.10;66.70
19920;DHT22;10122;50.074;19.920;2022-10-18T10:17:01;25.10;66.60
19920;DHT22;10122;50.074;19.920;2022-10-18T10:20:19;25.10;66.40
19920;DHT22;10122;50.074;19.920;2022-10-18T10:22:26;25.10;66.30
19920;DHT22;10122;50.074;19.920;2022-10-18T10:24:53;25.10;67.80
19920;DHT22;10122;50.074;19.920;2022-10-18T10:29:59;25.10;67.10
19920;DHT22;10122;50.074;19.920;2022-10-18T10:32:28;25.10;67.30
19920;DHT22;10122;50.074;19.920;2022-10-18T10:34:55;25.10;67.50
19920;DHT22;10122;50.074;19.920;2022-10-18T10:42:31;25.10;66.10
19920;DHT22;10122;50.074;19.920;2022-10-18T10:44:58;25.10;65.70
19920;DHT22;10122;50.074;19.920;2022-10-18T10:47:31;25.10;65.60
19920;DHT22;10122;50.074;19.920;2022-10-18T10:49:57;25.00;64.70
19920;DHT22;10122;50.074;19.920;2022-10-18T10:52:24;24.90;65.20
19920;DHT22;10122;50.074;19.920;2022-10-18T10:54:52;24.90;65.00
19920;DHT22;10122;50.074;19.920;2022-10-18T10:57:25;24.80;64.60
19920;DHT22;10122;50.074;19.920;2022-10-18T10:59:55;24.80;64.70
19920;DHT22;10122;50.074;19.920;2022-10-18T11:02:32;24.80;65.40
19920;DHT22;10122;50.074;19.920;2022-10-18T11:07:45;24.80;65.50
19920;DHT22;10122;50.074;19.920;2022-10-18T11:10:14;24.70;65.20
19920;DHT22;10122;50.074;19.920;2022-10-18T11:13:01;24.60;64.00
19920;DHT22;10122;50.074;19.920;2022-10-18T11:15:29;24.60;64.60
19920;DHT22;10122;50.074;19.920;2022-10-18T11:18:28;24.70;64.60
19920;DHT22;10122;50.074;19.920;2022-10-18T11:21:10;24.70;63.70
19920;DHT22;10122;50.074;19.920;2022-10-18T11:23:39;24.80;63.10
19920;DHT22;10122;50.074;19.920;2022-10-18T11:34:41;24.70;60.20
19920;DHT22;10122;50.074;19.920;2022-10-18T11:51:04;24.80;60.50
19920;DHT22;10122;50.074;19.920;2022-10-18T12:02:19;24.80;59.80
19920;DHT22;10122;50.074;19.920;2022-10-18T12:04:57;24.80;59.90
19920;DHT22;10122;50.074;19.920;2022-10-18T12:07:24;24.70;59.00
19920;DHT22;10122;50.074;19.920;2022-10-18T12:09:53;24.70;59.30
19920;DHT22;10122;50.074;19.920;2022-10-18T12:15:00;24.70;59.10
19920;DHT22;10122;50.074;19.920;2022-10-18T12:20:00;24.70;59.60
19920;DHT22;10122;50.074;19.920;2022-10-18T12:25:21;24.90;59.70
19920;DHT22;10122;50.074;19.920;2022-10-18T12:28:23;24.90;59.90
19920;DHT22;10122;50.074;19.920;2022-10-18T12:33:27;25.00;59.90
19920;DHT22;10122;50.074;19.920;2022-10-18T12:36:17;25.00;60.00
19920;DHT22;10122;50.074;19.920;2022-10-18T12:38:57;25.00;59.80
19920;DHT22;10122;50.074;19.920;2022-10-18T12:41:32;25.00;59.50
19920;DHT22;10122;50.074;19.920;2022-10-18T12:44:03;25.00;59.50
19920;DHT22;10122;50.074;19.920;2022-10-18T12:47:03;25.00;59.40
19920;DHT22;10122;50.074;19.920;2022-10-18T12:51:59;25.00;59.00
19920;DHT22;10122;50.074;19.920;2022-10-18T12:54:29;25.00;58.90
19920;DHT22;10122;50.074;19.920;2022-10-18T12:56:57;25.00;57.60
19920;DHT22;10122;50.074;19.920;2022-10-18T13:09:32;25.00;57.40
19920;DHT22;10122;50.074;19.920;2022-10-18T13:14:58;24.90;57.60
19920;DHT22;10122;50.074;19.920;2022-10-18T13:34:23;24.80;58.00
19920;DHT22;10122;50.074;19.920;2022-10-18T13:36:57;24.80;57.90
19920;DHT22;10122;50.074;19.920;2022-10-18T13:39:23;24.80;57.90
19920;DHT22;10122;50.074;19.920;2022-10-18T13:52:13;24.80;58.50
19920;DHT22;10122;50.074;19.920;2022-10-18T14:08:45;24.80;59.40
19920;DHT22;10122;50.074;19.920;2022-10-18T14:14:17;24.70;59.70
19920;DHT22;10122;50.074;19.920;2022-10-18T14:17:02;24.70;59.90
19920;DHT22;10122;50.074;19.920;2022-10-18T14:19:44;24.60;60.00
19920;DHT22;10122;50.074;19.920;2022-10-18T14:22:24;24.50;60.60
19920;DHT22;10122;50.074;19.920;2022-10-18T14:24:55;24.40;61.20
19920;DHT22;10122;50.074;19.920;2022-10-18T14:27:31;24.40;61.30
19920;DHT22;10122;50.074;19.920;2022-10-18T14:30:26;24.40;61.50
19920;DHT22;10122;50.074;19.920;2022-10-18T14:32:52;24.40;61.70
19920;DHT22;10122;50.074;19.920;2022-10-18T14:35:23;24.30;62.10
19920;DHT22;10122;50.074;19.920;2022-10-18T14:37:51;24.20;62.30
19920;DHT22;10122;50.074;19.920;2022-10-18T14:40:39;24.20;62.60
19920;DHT22;10122;50.074;19.920;2022-10-18T14:45:33;24.20;63.30
19920;DHT22;10122;50.074;19.920;2022-10-18T14:48:06;24.10;63.40
19920;DHT22;10122;50.074;19.920;2022-10-18T14:50:32;24.10;63.80
19920;DHT22;10122;50.074;19.920;2022-10-18T14:53:07;24.00;64.20
19920;DHT22;10122;50.074;19.920;2022-10-18T14:55:33;24.00;65.60
19920;DHT22;10122;50.074;19.920;2022-10-18T14:58:01;23.90;65.00
19920;DHT22;10122;50.074;19.920;2022-10-18T15:00:35;23.80;65.30
19920;DHT22;10122;50.074;19.920;2022-10-18T15:03:05;23.80;65.60
19920;DHT22;10122;50.074;19.920;2022-10-18T15:05:35;23.70;66.00
19920;DHT22;10122;50.074;19.920;2022-10-18T15:08:01;23.60;66.20
19920;DHT22;10122;50.074;19.920;2022-10-18T15:10:31;23.60;66.40
19920;DHT22;10122;50.074;19.920;2022-10-18T15:12:59;23.60;66.70
19920;DHT22;10122;50.074;19.920;2022-10-18T15:15:29;23.50;66.80
19920;DHT22;10122;50.074;19.920;2022-10-18T15:17:56;23.50;67.10
19920;DHT22;10122;50.074;19.920;2022-10-18T15:20:30;23.50;67.40
19920;DHT22;10122;50.074;19.920;2022-10-18T15:23:21;23.40;67.80
19920;DHT22;10122;50.074;19.920;2022-10-18T15:25:48;23.30;68.30
19920;DHT22;10122;50.074;19.920;2022-10-18T15:28:31;23.20;68.80
19920;DHT22;10122;50.074;19.920;2022-10-18T15:30:57;23.10;69.20
19920;DHT22;10122;50.074;19.920;2022-10-18T15:33:24;23.10;69.70
19920;DHT22;10122;50.074;19.920;2022-10-18T15:35:52;23.00;70.00
19920;DHT22;10122;50.074;19.920;2022-10-18T15:38:26;22.90;70.30
19920;DHT22;10122;50.074;19.920;2022-10-18T15:40:53;22.90;70.70
19920;DHT22;10122;50.074;19.920;2022-10-18T15:45:55;22.70;71.10
19920;DHT22;10122;50.074;19.920;2022-10-18T15:48:27;22.70;71.30
19920;DHT22;10122;50.074;19.920;2022-10-18T15:50:57;22.60;71.30
19920;DHT22;10122;50.074;19.920;2022-10-18T15:58:52;22.40;71.90
19920;DHT22;10122;50.074;19.920;2022-10-18T16:01:50;22.40;72.10
19920;DHT22;10122;50.074;19.920;2022-10-18T16:04:25;22.30;72.40
19920;DHT22;10122;50.074;19.920;2022-10-18T16:06:52;22.30;72.60
19920;DHT22;10122;50.074;19.920;2022-10-18T16:09:21;22.20;72.80
19920;DHT22;10122;50.074;19.920;2022-10-18T16:11:48;22.20;73.20
19920;DHT22;10122;50.074;19.920;2022-10-18T16:14:17;22.10;73.40
19920;DHT22;10122;50.074;19.920;2022-10-18T16:16:43;22.10;73.60
19920;DHT22;10122;50.074;19.920;2022-10-18T16:19:14;22.00;73.80
19920;DHT22;10122;50.074;19.920;2022-10-18T16:21:40;21.90;74.10
19920;DHT22;10122;50.074;19.920;2022-10-18T16:24:06;21.90;74.60
19920;DHT22;10122;50.074;19.920;2022-10-18T16:26:33;21.80;74.80
19920;DHT22;10122;50.074;19.920;2022-10-18T16:28:59;21.70;75.20
19920;DHT22;10122;50.074;19.920;2022-10-18T16:31:27;21.70;75.70
19920;DHT22;10122;50.074;19.920;2022-10-18T16:33:54;21.60;76.40
19920;DHT22;10122;50.074;19.920;2022-10-18T16:36:26;21.50;76.80
19920;DHT22;10122;50.074;19.920;2022-10-18T16:38:54;21.40;77.60
19920;DHT22;10122;50.074;19.920;2022-10-18T16:41:20;21.30;78.20
19920;DHT22;10122;50.074;19.920;2022-10-18T16:43:47;21.20;78.70
19920;DHT22;10122;50.074;19.920;2022-10-18T16:46:25;21.20;79.30
19920;DHT22;10122;50.074;19.920;2022-10-18T16:48:54;21.20;79.70
19920;DHT22;10122;50.074;19.920;2022-10-18T16:51:20;21.10;80.00
19920;DHT22;10122;50.074;19.920;2022-10-18T16:53:46;21.10;80.40
19920;DHT22;10122;50.074;19.920;2022-10-18T16:56:17;21.10;80.70
19920;DHT22;10122;50.074;19.920;2022-10-18T16:58:44;21.10;81.10
19920;DHT22;10122;50.074;19.920;2022-10-18T17:01:11;21.00;81.60
19920;DHT22;10122;50.074;19.920;2022-10-18T17:03:37;20.90;82.00
19920;DHT22;10122;50.074;19.920;2022-10-18T17:06:03;20.90;82.40
19920;DHT22;10122;50.074;19.920;2022-10-18T17:08:28;20.90;82.80
19920;DHT22;10122;50.074;19.920;2022-10-18T17:10:57;20.80;83.10
19920;DHT22;10122;50.074;19.920;2022-10-18T17:13:24;20.80;83.60
19920;DHT22;10122;50.074;19.920;2022-10-18T17:15:52;20.70;83.90
19920;DHT22;10122;50.074;19.920;2022-10-18T17:18:21;20.60;84.40
19920;DHT22;10122;50.074;19.920;2022-10-18T17:20:48;20.60;84.90
19920;DHT22;10122;50.074;19.920;2022-10-18T17:23:14;20.60;85.30
19920;DHT22;10122;50.074;19.920;2022-10-18T17:25:40;20.60;85.60
19920;DHT22;10122;50.074;19.920;2022-10-18T17:28:16;20.60;85.80
19920;DHT22;10122;50.074;19.920;2022-10-18T17:30:43;20.50;86.00
19920;DHT22;10122;50.074;19.920;2022-10-18T17:33:10;20.50;86.40
19920;DHT22;10122;50.074;19.920;2022-10-18T17:35:36;20.50;86.50
19920;DHT22;10122;50.074;19.920;2022-10-18T17:38:02;20.40;87.10
19920;DHT22;10122;50.074;19.920;2022-10-18T17:40:29;20.30;88.60
19920;DHT22;10122;50.074;19.920;2022-10-18T17:42:54;20.20;87.30
19920;DHT22;10122;50.074;19.920;2022-10-18T17:45:20;20.10;87.80
19920;DHT22;10122;50.074;19.920;2022-10-18T17:47:47;20.00;88.10
19920;DHT22;10122;50.074;19.920;2022-10-18T17:50:13;20.00;88.80
19920;DHT22;10122;50.074;19.920;2022-10-18T17:52:46;19.90;89.10
19920;DHT22;10122;50.074;19.920;2022-10-18T17:55:13;19.90;89.80
19920;DHT22;10122;50.074;19.920;2022-10-18T17:57:40;19.80;90.00
19920;DHT22;10122;50.074;19.920;2022-10-18T18:00:07;19.70;90.20
19920;DHT22;10122;50.074;19.920;2022-10-18T18:02:34;19.70;90.50
19920;DHT22;10122;50.074;19.920;2022-10-18T18:05:00;19.70;90.70
19920;DHT22;10122;50.074;19.920;2022-10-18T18:07:25;19.70;90.60
19920;DHT22;10122;50.074;19.920;2022-10-18T18:09:51;19.70;90.70
19920;DHT22;10122;50.074;19.920;2022-10-18T18:12:17;19.70;90.50
19920;DHT22;10122;50.074;19.920;2022-10-18T18:14:42;19.70;90.50
19920;DHT22;10122;50.074;19.920;2022-10-18T18:17:08;19.80;90.50
19920;DHT22;10122;50.074;19.920;2022-10-18T18:19:34;19.80;90.50
19920;DHT22;10122;50.074;19.920;2022-10-18T18:22:00;19.80;90.50
19920;DHT22;10122;50.074;19.920;2022-10-18T18:24:26;19.80;90.50
19920;DHT22;10122;50.074;19.920;2022-10-18T18:26:54;19.70;90.60